logo
App data

For The Glory: A Europa Universalis Game

Take up the reigns of your country, guide domestic and foreign policy, navigate thousands of historical events, engage in various struggles and lead your country to prosperity – all in the name of glory!
Store | Hub | SteamDB
Developer: Crystal Empire Games Publisher: Paradox Interactive
Genre: Strategy
Languages: English
Tags: Strategy (28), Grand Strategy (9), Historical (6)
Category: Single-player, Multi-player
Release date: Nov 11, 2009
Price: $9.99
Score rank: 34% Userscore: 71% Old userscore: 70%
Owners: 20,000 .. 50,000
Followers: 425
Peak concurrent players yesterday: 7
Playtime total: 01:10 (average) 02:09 (median)

Steam Spy is still in beta, so expect major bugs.

Owners data:

Access restricted.

This feature is only available to users with special access rights. Sorry.

If you want to proceed, you need to register or log in first and then back Steam Spy on Patreon. Look for Indie or Pro pledge.

Don't forget to use the same email as on Steam Spy!

Audience in 2 weeks:

Access restricted.

This feature is only available to users with special access rights. Sorry.

If you want to proceed, you need to register or log in first and then back Steam Spy on Patreon. Look for Indie or Pro pledge.

Don't forget to use the same email as on Steam Spy!

Peak daily concurrent players:

CCU data courtesy of SteamDB. Used with permission.

Hourly concurrent players:

YouTube:

The views data is based on top 50 videos uploaded last week. Actual number of views might be more than the number shown.

The displayed number of videos uploaded yesterday is limited to 50, so if there were more videos uploaded, the number will still show 50.

If the game has commonly used word as its name (like "FEAR" or "Volume") its number of Youtube views might be wrong.

Games similar to this one:

# Game Release date
Price
Score rank
(Userscore / Metascore)
Owners
Players
Playtime (Median)
1 Hostile Waters: Antaeus Rising Jun 14, 2001 $2.9997% (97%/80%)200,000 .. 500,0000%00:00 (00:00)
2 Decisive Campaigns: Barbarossa Nov 24, 2015 $49.9993% (95%)0 .. 20,00050%02:00 (01:20)
3 War of the Human Tanks - ALTeR Feb 13, 2015 $12.9993% (95%)0 .. 20,0000%00:00 (00:00)
4 Templar Battleforce Sep 21, 2015 $9.9993% (95%)20,000 .. 50,0000%00:00 (00:00)
5 Garden Rescue Feb 2, 2015 $3.9987% (93%)100,000 .. 200,0000.21%00:04 (00:01)
6 Darknet Jun 8, 2017 $14.99N/A (N/A)0 .. 20,0004.35%00:01 (00:00)
7 Zeus + Poseidon Dec 15, 2016 $9.9984% (92%)50,000 .. 100,0003.03%01:59 (00:39)
8 Gary Grigsby's War in the East Dec 7, 2010 $79.9984% (92%)0 .. 20,00012.5%09:56 (03:18)
9 Flashpoint Campaigns: Red Storm Player's Edition Oct 9, 2013 $49.9980% (91%)0 .. 20,0000%00:00 (00:00)
10 Battle Academy 2: Eastern Front Sep 12, 2014 $39.9980% (91%/78%)0 .. 20,0000%00:00 (00:00)
11 Children of a Dead Earth Sep 23, 2016 $24.9980% (91%)0 .. 20,0000%00:00 (00:00)
12 Kittypocalypse Aug 15, 2016 $8.9974% (89%)0 .. 20,0000%00:00 (00:00)
13 Kohan: Ahriman's Gift Nov 6, 2001 $9.99N/A (N/A/79%)0 .. 20,0000%00:00 (00:00)
14 Star Ruler Sep 20, 2010 $9.9966% (86%)100,000 .. 200,0000%00:00 (00:00)
15 Stalingrad Apr 5, 2005 $4.9966% (86%)20,000 .. 50,0001.45%00:06 (00:02)
16 MechoEcho May 18, 2016 $9.99N/A (N/A)0 .. 20,0000%00:00 (00:00)
17 Viking Saga: New World Nov 5, 2015 $3.99N/A (N/A)0 .. 20,0000%00:00 (00:00)
18 Advanced Tactics Gold Apr 12, 2011 $29.9958% (83%)0 .. 20,00017.65%00:33 (00:30)
19 NOBUNAGA'S AMBITION: Sphere of Influence Sep 1, 2015 $59.9958% (83%/70%)20,000 .. 50,0000%00:00 (00:00)
20 Enemy Mar 17, 2015 $14.9958% (83%)0 .. 20,0000%00:00 (00:00)
21 Lords of the Realm Nov 30, 1994 $1.99N/A (N/A)0 .. 20,0000%00:00 (00:00)
22 Conflicks - Revolutionary Space Battles Nov 5, 2015 $6.9956% (82%/63%)0 .. 20,0000%00:00 (00:00)
23 Radiant Defense Jul 11, 2014 $4.9953% (81%)0 .. 20,0000%00:00 (00:00)
24 Tank Warfare: Tunisia 1943 May 1, 2017 $39.9953% (81%)0 .. 20,0000%00:00 (00:00)
25 Strategic Command WWII: War in Europe Jun 6, 2017 $39.9951% (80%)0 .. 20,0000%00:00 (00:00)
26 Stellar Monarch Dec 5, 2016 $19.9951% (80%)0 .. 20,0000%00:00 (00:00)
27 Soldiers: Heroes of World War II Jun 29, 2004 $4.9949% (79%/77%)50,000 .. 100,0000%00:00 (00:00)
28 Defense Zone 3 Ultra HD Dec 14, 2016 $2.9949% (79%)20,000 .. 50,0000%00:00 (00:00)
29 Drive on Moscow Oct 27, 2016 $9.99N/A (N/A)0 .. 20,0000%00:00 (00:00)
30 Race for the Galaxy Jun 27, 2017 $6.9947% (78%)20,000 .. 50,0000%00:00 (00:00)
31 Catch Me Jun 11, 2016 $5.9947% (78%)0 .. 20,0000%00:00 (00:00)
32 Hidden Dimensions 3 Oct 12, 2016 FreeN/A (N/A)0 .. 20,0000%00:00 (00:00)
33 War on Folvos Sep 25, 2006 $3.9947% (78%)50,000 .. 100,0000%00:00 (00:00)
34 Tank Battle: 1944 Mar 1, 2016 $9.99N/A (N/A)0 .. 20,0001.79%05:06 (01:42)
35 NOBUNAGA’S AMBITION: Kakushin with Power Up Kit / 信長の野望・革新 with パワーアップキット Jun 25, 2015 $54.9941% (75%)20,000 .. 50,0000%00:00 (00:00)
36 Star Hammer: The Vanguard Prophecy Jun 4, 2015 $19.9941% (75%/69%)0 .. 20,0000%00:00 (00:00)
37 Victory and Glory: Napoleon Mar 17, 2016 $29.9939% (74%)0 .. 20,0000%00:00 (00:00)
38 Cheats 4 Hire Jun 25, 2015 $4.99N/A (N/A)0 .. 20,0000%00:00 (00:00)
39 Machines At War 3 Jul 23, 2014 $14.99N/A (N/A)0 .. 20,0000%00:00 (00:00)
40 Attack Heroes Apr 27, 2017 $9.9936% (72%)0 .. 20,0000%00:00 (00:00)
41 Codex of Victory Mar 16, 2017 $14.9936% (72%)0 .. 20,0000%00:00 (00:00)
42 Pick a Hero Jun 9, 2016 $0.99N/A (N/A)0 .. 20,0000%00:00 (00:00)
43 Mosby's Confederacy Nov 19, 2008 $9.99N/A (N/A)0 .. 20,0000%00:00 (00:00)
44 Little King's Story Aug 5, 2016 $19.9931% (69%/62%)0 .. 20,0000%00:00 (00:00)
45 Helldorado Apr 30, 2009 $9.9931% (69%/65%)20,000 .. 50,0000%00:00 (00:00)
46 Winds Of Trade Feb 13, 2017 $14.9928% (67%)0 .. 20,0005.26%02:14 (00:44)
47 Deadstone Nov 12, 2014 $7.99N/A (N/A)0 .. 20,0000%00:00 (00:00)
48 Warhammer 40,000: Armageddon - Da Orks Aug 18, 2016 $19.99N/A (N/A)0 .. 20,0000%00:00 (00:00)
49 Pure Chess Grandmaster Edition Sep 9, 2016 $15.9928% (67%)0 .. 20,0000%00:00 (00:00)
50 APT Aug 27, 2015 $14.99N/A (N/A)0 .. 20,0000%00:00 (00:00)
51 NOBUNAGA'S AMBITION: Tendou with Power Up Kit / 信長の野望・天道 with パワーアップキット Jun 25, 2015 $54.99N/A (N/A)0 .. 20,0000%00:00 (00:00)
52 Beasts Battle Jun 15, 2016 $1.9923% (63%)20,000 .. 50,0000%00:00 (00:00)
53 Battle of the Bulge Sep 17, 2015 $9.9923% (63%)0 .. 20,0000%00:00 (00:00)
54 Cuban Missile Crisis: Ice Crusade Jul 29, 2005 $4.99N/A (N/A)20,000 .. 50,0000%00:00 (00:00)
55 Element TD Jan 20, 2017 $0.99N/A (N/A)0 .. 20,0000%00:00 (00:00)
56 Freight Tycoon Inc. Aug 15, 2007 $4.9921% (61%)20,000 .. 50,0000%00:00 (00:00)
57 Business Tour - Online Multiplayer Board Game Jul 27, 2017 Free21% (61%)1,000,000 .. 2,000,0007.67%04:00 (00:54)
58 SunAge: Battle for Elysium Dec 15, 2014 $14.9921% (61%)0 .. 20,0000%00:00 (00:00)
59 Eclipse: New Dawn for the Galaxy Sep 16, 2016 N/A19% (60%)0 .. 20,0000%00:00 (00:00)
60 Steam Squad Jul 28, 2016 $17.9919% (60%)0 .. 20,0000%00:00 (00:00)
61 Spice Road Apr 24, 2014 $19.9919% (60%)0 .. 20,0000%00:00 (00:00)
62 Close Combat - Panthers in the Fog Nov 19, 2012 $39.9919% (60%)0 .. 20,0000%00:00 (00:00)
63 Ninja Cats vs Samurai Dogs Feb 21, 2014 $4.99N/A (N/A)0 .. 20,0000%00:00 (00:00)
64 LA Cops Mar 13, 2015 $14.9919% (60%/45%)0 .. 20,0002.56%00:15 (00:05)
65 Check vs Mate Aug 16, 2012 $19.9917% (58%/69%)0 .. 20,0000%00:00 (00:00)
66 Life in Bunker Feb 25, 2016 $15.9917% (58%)0 .. 20,0000%00:00 (00:00)
67 Aegis of Earth: Protonovus Assault Jul 18, 2016 $19.99N/A (N/A)0 .. 20,0000%00:00 (00:00)
68 Dungeon Manager ZV Oct 16, 2015 $9.9916% (57%)0 .. 20,0000%00:00 (00:00)
69 reconquest Dec 16, 2016 $4.7914% (55%)0 .. 20,0000%00:00 (00:00)
70 Gettysburg: The Tide Turns Jul 14, 2017 $9.99N/A (N/A)0 .. 20,0000%00:00 (00:00)
71 Ant Queen Jun 15, 2016 $3.9914% (54%)0 .. 20,0000%00:00 (00:00)
72 Desert Law Apr 29, 2005 $2.99N/A (N/A)20,000 .. 50,0000%00:00 (00:00)
73 Chronostorm: Siberian Border Apr 2, 2009 $0.99N/A (N/A)0 .. 20,0000%00:00 (00:00)
74 Star Traders: 4X Empires Nov 18, 2014 $9.9910% (48%)0 .. 20,0000%00:00 (00:00)
75 3D Chess Dec 6, 2016 $9.99N/A (N/A)0 .. 20,0000%00:00 (00:00)
76 ZAMB! Biomutant Extermination Jun 20, 2014 N/AN/A (N/A)0 .. 20,0000%00:00 (00:00)
77 Clockwork Empires Oct 26, 2016 $29.998% (45%/58%)20,000 .. 50,0000%00:00 (00:00)
78 Rulers of Nations Jul 16, 2014 $19.997% (42%/63%)0 .. 20,0000%00:00 (00:00)
79 Zombie Wars: Invasion Jan 14, 2016 $2.997% (42%)0 .. 20,0000%00:00 (00:00)
80 Wars of Napoleon Dec 3, 2015 $39.995% (38%)0 .. 20,0000%00:00 (00:00)
81 Cubesis Aug 22, 2014 $4.99N/A (N/A)0 .. 20,0000%00:00 (00:00)
82 Sim Junta Aug 18, 2015 $1.994% (35%)0 .. 20,0000%00:00 (00:00)
83 CTU: Counter Terrorism Unit Apr 22, 2016 $4.994% (34%)0 .. 20,0000%00:00 (00:00)
84 Storm over the Pacific Jun 13, 2014 $9.99N/A (N/A)0 .. 20,0000%00:00 (00:00)
85 Power of Defense Aug 4, 2010 $9.99N/A (N/A)0 .. 20,0000%00:00 (00:00)
86 Fray: Reloaded Edition Jun 19, 2012 N/AN/A (N/A/27%)0 .. 20,0000%00:00 (00:00)

Tags over time:

Access restricted.

This feature is only available to users with special access rights. Sorry.

If you want to proceed, you need to register or log in first and then back Steam Spy on Patreon. Look for Indie or Pro pledge.

Don't forget to use the same email as on Steam Spy!

Owners of this game also own:

Access restricted.

This feature is only available to users with special access rights. Sorry.

If you want to proceed, you need to register or log in first and then back Steam Spy on Patreon. Look for Indie or Pro pledge.

Don't forget to use the same email as on Steam Spy!

Playtime distribution:

Access restricted.

This feature is only available to users with special access rights. Sorry.

If you want to proceed, you need to register or log in first and then back Steam Spy on Patreon. Look for Indie or Pro pledge.

Don't forget to use the same email as on Steam Spy!

Playtime (2 weeks):

Access restricted.

This feature is only available to users with special access rights. Sorry.

If you want to proceed, you need to register or log in first and then back Steam Spy on Patreon. Look for Indie or Pro pledge.

Don't forget to use the same email as on Steam Spy!

User reviews:

Login required.

Please register or log in to see this information.